sensor_id;sensor_type;location;lat;lon;timestamp;P1;durP1;ratioP1;P2;durP2;ratioP2
74933;SDS011;63499;53.232;7.492;2023-04-21T08:29:42;15.88;;;6.55;;
74933;SDS011;63499;53.232;7.492;2023-04-21T08:32:09;15.18;;;6.13;;
74933;SDS011;63499;53.232;7.492;2023-04-21T08:34:35;15.43;;;6.15;;
74933;SDS011;63499;53.232;7.492;2023-04-21T08:37:02;19.77;;;6.20;;
74933;SDS011;63499;53.232;7.492;2023-04-21T08:39:28;12.30;;;5.90;;
74933;SDS011;63499;53.232;7.492;2023-04-21T08:41:55;16.10;;;5.93;;
74933;SDS011;63499;53.232;7.492;2023-04-21T08:44:23;13.98;;;5.28;;
74933;SDS011;63499;53.232;7.492;2023-04-21T08:46:50;14.60;;;6.28;;
74933;SDS011;63499;53.232;7.492;2023-04-21T08:49:18;18.85;;;5.75;;
74933;SDS011;63499;53.232;7.492;2023-04-21T08:51:45;22.30;;;5.63;;
74933;SDS011;63499;53.232;7.492;2023-04-21T08:54:12;19.05;;;5.82;;
74933;SDS011;63499;53.232;7.492;2023-04-21T08:56:38;14.60;;;5.90;;
74933;SDS011;63499;53.232;7.492;2023-04-21T08:59:05;16.27;;;5.38;;
74933;SDS011;63499;53.232;7.492;2023-04-21T09:01:31;17.83;;;5.28;;
74933;SDS011;63499;53.232;7.492;2023-04-21T09:04:16;15.35;;;5.30;;
74933;SDS011;63499;53.232;7.492;2023-04-21T09:06:43;22.65;;;5.93;;
74933;SDS011;63499;53.232;7.492;2023-04-21T09:09:10;16.90;;;5.82;;
74933;SDS011;63499;53.232;7.492;2023-04-21T09:11:37;22.70;;;6.18;;
74933;SDS011;63499;53.232;7.492;2023-04-21T09:14:03;14.57;;;4.88;;
74933;SDS011;63499;53.232;7.492;2023-04-21T09:16:30;18.38;;;5.18;;
74933;SDS011;63499;53.232;7.492;2023-04-21T09:18:58;14.38;;;5.13;;
74933;SDS011;63499;53.232;7.492;2023-04-21T09:21:28;17.35;;;5.57;;
74933;SDS011;63499;53.232;7.492;2023-04-21T09:23:56;15.52;;;4.75;;
74933;SDS011;63499;53.232;7.492;2023-04-21T09:26:30;16.38;;;4.95;;
74933;SDS011;63499;53.232;7.492;2023-04-21T09:28:57;11.73;;;5.63;;
74933;SDS011;63499;53.232;7.492;2023-04-21T09:31:24;21.98;;;6.00;;
74933;SDS011;63499;53.232;7.492;2023-04-21T09:33:53;20.52;;;5.13;;
74933;SDS011;63499;53.232;7.492;2023-04-21T09:36:21;11.65;;;5.00;;
74933;SDS011;63499;53.232;7.492;2023-04-21T09:38:57;8.45;;;4.82;;
74933;SDS011;63499;53.232;7.492;2023-04-21T09:41:24;12.90;;;4.47;;
74933;SDS011;63499;53.232;7.492;2023-04-21T09:43:51;16.05;;;5.68;;
74933;SDS011;63499;53.232;7.492;2023-04-21T09:46:18;14.55;;;5.53;;
74933;SDS011;63499;53.232;7.492;2023-04-21T09:48:46;13.30;;;5.00;;
74933;SDS011;63499;53.232;7.492;2023-04-21T09:51:13;16.33;;;5.47;;
74933;SDS011;63499;53.232;7.492;2023-04-21T09:53:41;9.82;;;4.55;;
74933;SDS011;63499;53.232;7.492;2023-04-21T09:56:10;14.05;;;5.53;;
74933;SDS011;63499;53.232;7.492;2023-04-21T09:58:51;13.00;;;5.50;;
74933;SDS011;63499;53.232;7.492;2023-04-21T10:01:18;17.98;;;5.20;;
74933;SDS011;63499;53.232;7.492;2023-04-21T10:03:48;11.82;;;4.47;;
74933;SDS011;63499;53.232;7.492;2023-04-21T10:06:16;9.88;;;4.70;;
74933;SDS011;63499;53.232;7.492;2023-04-21T10:08:42;19.65;;;5.35;;
74933;SDS011;63499;53.232;7.492;2023-04-21T10:11:09;12.98;;;4.57;;
74933;SDS011;63499;53.232;7.492;2023-04-21T10:13:37;14.73;;;5.05;;
74933;SDS011;63499;53.232;7.492;2023-04-21T10:16:06;19.75;;;4.80;;
74933;SDS011;63499;53.232;7.492;2023-04-21T10:18:34;11.43;;;4.38;;
74933;SDS011;63499;53.232;7.492;2023-04-21T10:21:11;11.80;;;4.53;;
74933;SDS011;63499;53.232;7.492;2023-04-21T10:23:42;8.55;;;4.40;;
74933;SDS011;63499;53.232;7.492;2023-04-21T10:26:31;14.25;;;4.20;;
74933;SDS011;63499;53.232;7.492;2023-04-21T10:29:04;10.52;;;5.30;;
74933;SDS011;63499;53.232;7.492;2023-04-21T10:34:13;20.00;;;5.18;;
74933;SDS011;63499;53.232;7.492;2023-04-21T10:41:56;12.00;;;4.60;;
74933;SDS011;63499;53.232;7.492;2023-04-21T10:44:23;16.98;;;4.82;;
74933;SDS011;63499;53.232;7.492;2023-04-21T10:46:51;15.00;;;5.25;;
74933;SDS011;63499;53.232;7.492;2023-04-21T10:49:25;18.25;;;4.72;;
74933;SDS011;63499;53.232;7.492;2023-04-21T10:55:02;14.20;;;4.18;;
74933;SDS011;63499;53.232;7.492;2023-04-21T10:57:30;13.27;;;4.63;;
74933;SDS011;63499;53.232;7.492;2023-04-21T10:59:58;12.68;;;4.80;;
74933;SDS011;63499;53.232;7.492;2023-04-21T11:02:25;11.68;;;4.10;;
74933;SDS011;63499;53.232;7.492;2023-04-21T11:04:52;10.00;;;3.75;;
74933;SDS011;63499;53.232;7.492;2023-04-21T11:07:19;12.73;;;4.60;;
74933;SDS011;63499;53.232;7.492;2023-04-21T11:09:47;8.57;;;4.43;;
74933;SDS011;63499;53.232;7.492;2023-04-21T11:12:21;15.10;;;4.28;;
74933;SDS011;63499;53.232;7.492;2023-04-21T11:14:48;14.73;;;4.43;;
74933;SDS011;63499;53.232;7.492;2023-04-21T11:17:15;17.58;;;4.60;;
74933;SDS011;63499;53.232;7.492;2023-04-21T11:19:49;10.15;;;4.05;;
74933;SDS011;63499;53.232;7.492;2023-04-21T11:22:17;11.75;;;4.28;;
74933;SDS011;63499;53.232;7.492;2023-04-21T11:24:44;13.75;;;4.88;;
74933;SDS011;63499;53.232;7.492;2023-04-21T11:27:13;10.18;;;3.92;;
74933;SDS011;63499;53.232;7.492;2023-04-21T11:29:40;10.50;;;4.18;;
74933;SDS011;63499;53.232;7.492;2023-04-21T11:32:07;11.40;;;3.97;;
74933;SDS011;63499;53.232;7.492;2023-04-21T11:34:36;9.70;;;4.15;;
74933;SDS011;63499;53.232;7.492;2023-04-21T11:37:03;11.30;;;3.65;;
74933;SDS011;63499;53.232;7.492;2023-04-21T11:39:32;15.90;;;3.50;;
74933;SDS011;63499;53.232;7.492;2023-04-21T11:41:59;12.18;;;3.72;;
74933;SDS011;63499;53.232;7.492;2023-04-21T11:46:56;10.38;;;3.70;;
74933;SDS011;63499;53.232;7.492;2023-04-21T11:49:23;8.85;;;3.60;;
74933;SDS011;63499;53.232;7.492;2023-04-21T11:51:50;7.18;;;3.65;;
74933;SDS011;63499;53.232;7.492;2023-04-21T11:54:17;8.93;;;3.45;;
74933;SDS011;63499;53.232;7.492;2023-04-21T11:56:46;11.23;;;4.07;;
74933;SDS011;63499;53.232;7.492;2023-04-21T11:59:14;9.85;;;3.47;;
74933;SDS011;63499;53.232;7.492;2023-04-21T12:01:41;10.45;;;3.80;;
74933;SDS011;63499;53.232;7.492;2023-04-21T12:04:12;11.85;;;3.67;;
74933;SDS011;63499;53.232;7.492;2023-04-21T12:06:40;11.35;;;3.42;;
74933;SDS011;63499;53.232;7.492;2023-04-21T12:09:07;12.32;;;3.88;;
74933;SDS011;63499;53.232;7.492;2023-04-21T12:11:35;11.95;;;4.22;;
74933;SDS011;63499;53.232;7.492;2023-04-21T12:14:01;9.40;;;3.33;;
74933;SDS011;63499;53.232;7.492;2023-04-21T12:16:31;9.13;;;3.55;;
74933;SDS011;63499;53.232;7.492;2023-04-21T12:18:58;6.38;;;3.40;;
74933;SDS011;63499;53.232;7.492;2023-04-21T12:21:28;10.18;;;3.22;;
74933;SDS011;63499;53.232;7.492;2023-04-21T12:23:57;15.77;;;3.67;;
74933;SDS011;63499;53.232;7.492;2023-04-21T12:26:24;7.53;;;3.55;;
74933;SDS011;63499;53.232;7.492;2023-04-21T12:28:51;7.97;;;3.60;;
74933;SDS011;63499;53.232;7.492;2023-04-21T12:31:18;6.95;;;3.50;;
74933;SDS011;63499;53.232;7.492;2023-04-21T12:33:45;10.02;;;3.92;;
74933;SDS011;63499;53.232;7.492;2023-04-21T12:36:11;14.05;;;3.67;;
74933;SDS011;63499;53.232;7.492;2023-04-21T12:38:38;11.70;;;4.00;;
74933;SDS011;63499;53.232;7.492;2023-04-21T12:41:05;11.82;;;3.60;;
74933;SDS011;63499;53.232;7.492;2023-04-21T12:43:32;9.70;;;4.18;;
74933;SDS011;63499;53.232;7.492;2023-04-21T12:45:59;8.00;;;3.78;;
74933;SDS011;63499;53.232;7.492;2023-04-21T12:48:25;8.65;;;4.07;;
74933;SDS011;63499;53.232;7.492;2023-04-21T12:50:52;7.15;;;3.60;;
74933;SDS011;63499;53.232;7.492;2023-04-21T12:53:18;10.38;;;4.00;;
74933;SDS011;63499;53.232;7.492;2023-04-21T12:55:45;8.45;;;3.40;;
74933;SDS011;63499;53.232;7.492;2023-04-21T12:58:12;12.20;;;3.55;;
74933;SDS011;63499;53.232;7.492;2023-04-21T13:00:41;6.68;;;3.55;;
74933;SDS011;63499;53.232;7.492;2023-04-21T13:03:08;9.45;;;3.47;;
74933;SDS011;63499;53.232;7.492;2023-04-21T13:05:35;8.70;;;3.40;;
74933;SDS011;63499;53.232;7.492;2023-04-21T13:08:02;10.48;;;3.20;;
74933;SDS011;63499;53.232;7.492;2023-04-21T13:10:29;6.93;;;3.10;;
74933;SDS011;63499;53.232;7.492;2023-04-21T13:12:56;8.10;;;3.25;;
74933;SDS011;63499;53.232;7.492;2023-04-21T13:15:23;7.82;;;3.10;;
74933;SDS011;63499;53.232;7.492;2023-04-21T13:17:50;8.55;;;2.90;;
74933;SDS011;63499;53.232;7.492;2023-04-21T13:20:17;6.05;;;2.95;;
74933;SDS011;63499;53.232;7.492;2023-04-21T13:22:47;11.27;;;3.75;;
74933;SDS011;63499;53.232;7.492;2023-04-21T13:25:14;9.48;;;3.20;;
74933;SDS011;63499;53.232;7.492;2023-04-21T13:27:41;7.53;;;2.75;;
74933;SDS011;63499;53.232;7.492;2023-04-21T13:30:09;4.93;;;2.50;;
74933;SDS011;63499;53.232;7.492;2023-04-21T13:32:36;4.53;;;2.90;;
74933;SDS011;63499;53.232;7.492;2023-04-21T13:35:03;12.40;;;2.55;;
74933;SDS011;63499;53.232;7.492;2023-04-21T13:37:38;8.10;;;2.53;;
74933;SDS011;63499;53.232;7.492;2023-04-21T13:40:05;5.20;;;3.22;;
74933;SDS011;63499;53.232;7.492;2023-04-21T13:42:36;11.50;;;2.95;;
74933;SDS011;63499;53.232;7.492;2023-04-21T13:45:03;4.90;;;2.53;;
74933;SDS011;63499;53.232;7.492;2023-04-21T13:47:30;7.25;;;2.38;;
74933;SDS011;63499;53.232;7.492;2023-04-21T13:49:57;7.30;;;3.03;;
74933;SDS011;63499;53.232;7.492;2023-04-21T13:52:24;6.03;;;2.92;;
74933;SDS011;63499;53.232;7.492;2023-04-21T13:54:52;6.55;;;2.80;;
74933;SDS011;63499;53.232;7.492;2023-04-21T13:57:19;6.18;;;2.53;;
74933;SDS011;63499;53.232;7.492;2023-04-21T13:59:47;11.55;;;2.60;;
74933;SDS011;63499;53.232;7.492;2023-04-21T14:02:13;5.85;;;2.33;;
74933;SDS011;63499;53.232;7.492;2023-04-21T14:04:41;6.93;;;3.00;;
74933;SDS011;63499;53.232;7.492;2023-04-21T14:07:09;6.57;;;2.55;;
74933;SDS011;63499;53.232;7.492;2023-04-21T14:09:36;6.68;;;2.67;;
74933;SDS011;63499;53.232;7.492;2023-04-21T14:12:03;6.20;;;2.95;;
74933;SDS011;63499;53.232;7.492;2023-04-21T14:14:30;5.55;;;2.70;;
74933;SDS011;63499;53.232;7.492;2023-04-21T14:16:57;5.68;;;3.00;;
74933;SDS011;63499;53.232;7.492;2023-04-21T14:19:24;4.25;;;2.45;;
74933;SDS011;63499;53.232;7.492;2023-04-21T14:21:51;10.82;;;3.20;;
74933;SDS011;63499;53.232;7.492;2023-04-21T14:24:18;6.80;;;2.88;;
74933;SDS011;63499;53.232;7.492;2023-04-21T14:26:46;5.03;;;3.03;;
74933;SDS011;63499;53.232;7.492;2023-04-21T14:29:13;8.40;;;2.63;;
74933;SDS011;63499;53.232;7.492;2023-04-21T14:31:40;9.68;;;3.17;;
74933;SDS011;63499;53.232;7.492;2023-04-21T14:34:07;5.25;;;2.47;;
74933;SDS011;63499;53.232;7.492;2023-04-21T14:36:36;8.52;;;2.53;;
74933;SDS011;63499;53.232;7.492;2023-04-21T14:39:03;9.85;;;2.97;;
74933;SDS011;63499;53.232;7.492;2023-04-21T14:41:30;7.45;;;3.00;;
74933;SDS011;63499;53.232;7.492;2023-04-21T14:43:57;4.32;;;2.30;;
74933;SDS011;63499;53.232;7.492;2023-04-21T14:46:28;3.85;;;2.60;;
74933;SDS011;63499;53.232;7.492;2023-04-21T14:48:55;7.15;;;2.83;;
74933;SDS011;63499;53.232;7.492;2023-04-21T14:51:22;5.13;;;2.65;;
74933;SDS011;63499;53.232;7.492;2023-04-21T14:53:48;6.60;;;2.80;;
74933;SDS011;63499;53.232;7.492;2023-04-21T14:56:15;6.45;;;2.65;;
74933;SDS011;63499;53.232;7.492;2023-04-21T14:58:43;3.80;;;2.42;;
74933;SDS011;63499;53.232;7.492;2023-04-21T15:01:10;4.85;;;2.45;;
74933;SDS011;63499;53.232;7.492;2023-04-21T15:03:38;9.45;;;2.75;;
74933;SDS011;63499;53.232;7.492;2023-04-21T15:06:05;7.57;;;2.83;;
74933;SDS011;63499;53.232;7.492;2023-04-21T15:08:32;5.35;;;3.15;;
74933;SDS011;63499;53.232;7.492;2023-04-21T15:10:59;13.35;;;3.38;;
74933;SDS011;63499;53.232;7.492;2023-04-21T15:13:26;5.30;;;3.00;;
74933;SDS011;63499;53.232;7.492;2023-04-21T15:15:55;13.27;;;3.25;;
74933;SDS011;63499;53.232;7.492;2023-04-21T15:18:22;9.82;;;2.97;;
74933;SDS011;63499;53.232;7.492;2023-04-21T15:20:49;12.32;;;3.00;;
74933;SDS011;63499;53.232;7.492;2023-04-21T15:23:15;7.38;;;2.95;;
74933;SDS011;63499;53.232;7.492;2023-04-21T15:25:44;4.75;;;2.97;;
74933;SDS011;63499;53.232;7.492;2023-04-21T15:28:10;5.88;;;2.83;;
74933;SDS011;63499;53.232;7.492;2023-04-21T15:30:37;5.88;;;2.75;;
74933;SDS011;63499;53.232;7.492;2023-04-21T15:33:04;7.00;;;2.88;;
74933;SDS011;63499;53.232;7.492;2023-04-21T15:35:31;5.63;;;2.53;;
74933;SDS011;63499;53.232;7.492;2023-04-21T15:37:57;5.03;;;2.90;;
74933;SDS011;63499;53.232;7.492;2023-04-21T15:40:24;6.38;;;3.03;;
74933;SDS011;63499;53.232;7.492;2023-04-21T15:42:51;7.00;;;3.25;;
74933;SDS011;63499;53.232;7.492;2023-04-21T15:45:18;6.38;;;2.85;;
74933;SDS011;63499;53.232;7.492;2023-04-21T15:47:45;11.35;;;3.05;;
74933;SDS011;63499;53.232;7.492;2023-04-21T15:50:14;5.82;;;2.80;;
74933;SDS011;63499;53.232;7.492;2023-04-21T15:52:41;6.13;;;3.20;;
74933;SDS011;63499;53.232;7.492;2023-04-21T15:55:09;9.75;;;3.10;;
74933;SDS011;63499;53.232;7.492;2023-04-21T15:57:36;9.40;;;2.80;;
74933;SDS011;63499;53.232;7.492;2023-04-21T16:00:03;5.40;;;3.13;;
74933;SDS011;63499;53.232;7.492;2023-04-21T16:02:38;7.05;;;2.53;;
74933;SDS011;63499;53.232;7.492;2023-04-21T16:05:05;5.90;;;2.78;;
74933;SDS011;63499;53.232;7.492;2023-04-21T16:07:32;6.88;;;3.47;;
74933;SDS011;63499;53.232;7.492;2023-04-21T16:09:59;6.40;;;3.10;;
74933;SDS011;63499;53.232;7.492;2023-04-21T16:12:26;5.70;;;3.15;;
74933;SDS011;63499;53.232;7.492;2023-04-21T16:14:53;9.48;;;3.03;;
74933;SDS011;63499;53.232;7.492;2023-04-21T16:17:20;5.95;;;3.00;;
74933;SDS011;63499;53.232;7.492;2023-04-21T16:19:47;8.57;;;3.45;;
74933;SDS011;63499;53.232;7.492;2023-04-21T16:22:15;5.60;;;3.35;;
74933;SDS011;63499;53.232;7.492;2023-04-21T16:24:44;6.50;;;3.03;;
74933;SDS011;63499;53.232;7.492;2023-04-21T16:27:11;4.22;;;3.20;;
74933;SDS011;63499;53.232;7.492;2023-04-21T16:29:38;11.48;;;3.50;;
74933;SDS011;63499;53.232;7.492;2023-04-21T16:32:05;7.97;;;3.17;;
74933;SDS011;63499;53.232;7.492;2023-04-21T16:34:32;6.65;;;3.42;;
74933;SDS011;63499;53.232;7.492;2023-04-21T16:36:59;7.28;;;3.75;;
74933;SDS011;63499;53.232;7.492;2023-04-21T16:39:26;5.45;;;3.05;;
74933;SDS011;63499;53.232;7.492;2023-04-21T16:41:52;6.90;;;3.15;;
74933;SDS011;63499;53.232;7.492;2023-04-21T16:44:19;11.10;;;3.35;;
74933;SDS011;63499;53.232;7.492;2023-04-21T16:46:46;12.45;;;3.97;;
74933;SDS011;63499;53.232;7.492;2023-04-21T16:49:13;7.93;;;3.30;;
74933;SDS011;63499;53.232;7.492;2023-04-21T16:51:40;4.47;;;3.35;;
74933;SDS011;63499;53.232;7.492;2023-04-21T16:54:11;8.98;;;4.05;;
74933;SDS011;63499;53.232;7.492;2023-04-21T16:56:38;4.55;;;3.10;;
74933;SDS011;63499;53.232;7.492;2023-04-21T16:59:05;6.63;;;3.15;;
74933;SDS011;63499;53.232;7.492;2023-04-21T17:01:32;4.95;;;3.47;;
74933;SDS011;63499;53.232;7.492;2023-04-21T17:03:59;5.47;;;3.55;;
74933;SDS011;63499;53.232;7.492;2023-04-21T17:06:26;5.50;;;3.35;;
74933;SDS011;63499;53.232;7.492;2023-04-21T17:08:53;10.32;;;3.63;;
74933;SDS011;63499;53.232;7.492;2023-04-21T17:11:26;7.38;;;3.30;;
74933;SDS011;63499;53.232;7.492;2023-04-21T17:13:54;8.27;;;4.25;;
74933;SDS011;63499;53.232;7.492;2023-04-21T17:16:21;8.00;;;4.00;;
74933;SDS011;63499;53.232;7.492;2023-04-21T17:18:48;8.13;;;3.90;;
74933;SDS011;63499;53.232;7.492;2023-04-21T17:21:15;8.40;;;4.00;;
74933;SDS011;63499;53.232;7.492;2023-04-21T17:23:42;10.20;;;4.47;;
74933;SDS011;63499;53.232;7.492;2023-04-21T17:26:09;6.10;;;4.10;;
74933;SDS011;63499;53.232;7.492;2023-04-21T17:28:39;7.50;;;3.28;;
74933;SDS011;63499;53.232;7.492;2023-04-21T17:31:06;9.55;;;3.83;;
74933;SDS011;63499;53.232;7.492;2023-04-21T17:33:33;7.47;;;3.55;;
74933;SDS011;63499;53.232;7.492;2023-04-21T17:35:59;6.00;;;4.22;;
74933;SDS011;63499;53.232;7.492;2023-04-21T17:38:26;11.20;;;5.53;;
74933;SDS011;63499;53.232;7.492;2023-04-21T17:40:53;14.23;;;4.78;;
74933;SDS011;63499;53.232;7.492;2023-04-21T17:43:19;6.75;;;4.22;;
74933;SDS011;63499;53.232;7.492;2023-04-21T17:45:46;6.82;;;3.30;;
74933;SDS011;63499;53.232;7.492;2023-04-21T17:48:13;6.72;;;4.00;;
74933;SDS011;63499;53.232;7.492;2023-04-21T17:50:40;8.68;;;3.45;;
74933;SDS011;63499;53.232;7.492;2023-04-21T17:53:07;4.60;;;3.10;;
74933;SDS011;63499;53.232;7.492;2023-04-21T17:55:34;5.05;;;3.13;;
74933;SDS011;63499;53.232;7.492;2023-04-21T17:58:01;5.45;;;3.10;;
74933;SDS011;63499;53.232;7.492;2023-04-21T18:00:28;5.18;;;3.42;;
74933;SDS011;63499;53.232;7.492;2023-04-21T18:02:59;7.10;;;3.58;;
74933;SDS011;63499;53.232;7.492;2023-04-21T18:05:26;4.70;;;3.20;;
74933;SDS011;63499;53.232;7.492;2023-04-21T18:07:53;5.85;;;3.33;;
74933;SDS011;63499;53.232;7.492;2023-04-21T18:10:21;8.85;;;4.15;;
74933;SDS011;63499;53.232;7.492;2023-04-21T18:12:50;6.65;;;4.30;;
74933;SDS011;63499;53.232;7.492;2023-04-21T18:15:17;7.10;;;4.40;;
74933;SDS011;63499;53.232;7.492;2023-04-21T18:17:44;9.10;;;4.03;;
74933;SDS011;63499;53.232;7.492;2023-04-21T18:20:13;6.50;;;3.80;;
74933;SDS011;63499;53.232;7.492;2023-04-21T18:22:43;6.43;;;3.53;;
74933;SDS011;63499;53.232;7.492;2023-04-21T18:25:10;8.00;;;4.10;;
74933;SDS011;63499;53.232;7.492;2023-04-21T18:27:38;8.40;;;4.47;;
74933;SDS011;63499;53.232;7.492;2023-04-21T18:30:06;7.55;;;3.85;;
74933;SDS011;63499;53.232;7.492;2023-04-21T18:32:34;12.05;;;4.65;;
74933;SDS011;63499;53.232;7.492;2023-04-21T18:35:02;8.93;;;4.30;;
74933;SDS011;63499;53.232;7.492;2023-04-21T18:37:29;11.07;;;4.10;;
74933;SDS011;63499;53.232;7.492;2023-04-21T18:39:55;7.70;;;4.30;;
74933;SDS011;63499;53.232;7.492;2023-04-21T18:42:23;8.48;;;4.18;;
74933;SDS011;63499;53.232;7.492;2023-04-21T18:44:51;6.57;;;4.15;;
74933;SDS011;63499;53.232;7.492;2023-04-21T18:47:19;7.45;;;4.47;;
74933;SDS011;63499;53.232;7.492;2023-04-21T18:49:46;10.75;;;4.97;;
74933;SDS011;63499;53.232;7.492;2023-04-21T18:52:13;10.00;;;4.75;;
74933;SDS011;63499;53.232;7.492;2023-04-21T18:54:40;8.70;;;4.30;;
74933;SDS011;63499;53.232;7.492;2023-04-21T18:57:07;7.95;;;4.80;;
74933;SDS011;63499;53.232;7.492;2023-04-21T18:59:34;7.20;;;4.45;;
74933;SDS011;63499;53.232;7.492;2023-04-21T19:02:01;7.93;;;4.85;;
74933;SDS011;63499;53.232;7.492;2023-04-21T19:04:30;8.07;;;4.40;;
74933;SDS011;63499;53.232;7.492;2023-04-21T19:06:57;12.65;;;4.78;;
74933;SDS011;63499;53.232;7.492;2023-04-21T19:09:26;10.63;;;4.70;;
74933;SDS011;63499;53.232;7.492;2023-04-21T19:11:54;11.30;;;4.68;;
74933;SDS011;63499;53.232;7.492;2023-04-21T19:14:21;15.38;;;5.00;;
74933;SDS011;63499;53.232;7.492;2023-04-21T19:16:48;11.95;;;5.20;;
74933;SDS011;63499;53.232;7.492;2023-04-21T19:19:17;12.15;;;5.28;;
74933;SDS011;63499;53.232;7.492;2023-04-21T19:21:44;11.45;;;6.03;;
74933;SDS011;63499;53.232;7.492;2023-04-21T19:24:11;11.45;;;4.88;;
74933;SDS011;63499;53.232;7.492;2023-04-21T19:26:38;5.78;;;4.45;;
74933;SDS011;63499;53.232;7.492;2023-04-21T19:29:05;11.40;;;4.88;;
74933;SDS011;63499;53.232;7.492;2023-04-21T19:31:37;9.30;;;4.50;;
74933;SDS011;63499;53.232;7.492;2023-04-21T19:34:04;9.07;;;4.72;;
74933;SDS011;63499;53.232;7.492;2023-04-21T19:36:31;8.38;;;5.35;;
74933;SDS011;63499;53.232;7.492;2023-04-21T19:38:58;8.68;;;4.82;;
74933;SDS011;63499;53.232;7.492;2023-04-21T19:41:25;9.05;;;4.53;;
74933;SDS011;63499;53.232;7.492;2023-04-21T19:43:52;9.48;;;5.40;;
74933;SDS011;63499;53.232;7.492;2023-04-21T19:46:18;11.10;;;5.32;;
74933;SDS011;63499;53.232;7.492;2023-04-21T19:48:46;10.82;;;5.43;;
74933;SDS011;63499;53.232;7.492;2023-04-21T19:51:15;6.47;;;4.93;;
74933;SDS011;63499;53.232;7.492;2023-04-21T19:53:41;8.55;;;4.90;;
74933;SDS011;63499;53.232;7.492;2023-04-21T19:56:08;9.65;;;5.22;;
74933;SDS011;63499;53.232;7.492;2023-04-21T19:58:35;7.35;;;4.82;;
74933;SDS011;63499;53.232;7.492;2023-04-21T20:01:02;12.00;;;5.18;;
74933;SDS011;63499;53.232;7.492;2023-04-21T20:03:30;7.75;;;4.97;;
74933;SDS011;63499;53.232;7.492;2023-04-21T20:05:57;6.75;;;4.60;;
74933;SDS011;63499;53.232;7.492;2023-04-21T20:08:24;8.65;;;5.22;;
74933;SDS011;63499;53.232;7.492;2023-04-21T20:10:51;9.88;;;5.03;;
74933;SDS011;63499;53.232;7.492;2023-04-21T20:13:17;9.35;;;5.50;;
74933;SDS011;63499;53.232;7.492;2023-04-21T20:15:44;6.90;;;4.57;;
74933;SDS011;63499;53.232;7.492;2023-04-21T20:18:11;11.95;;;5.30;;
74933;SDS011;63499;53.232;7.492;2023-04-21T20:20:37;10.57;;;4.65;;
74933;SDS011;63499;53.232;7.492;2023-04-21T20:23:04;7.85;;;5.00;;
74933;SDS011;63499;53.232;7.492;2023-04-21T20:25:31;12.50;;;5.20;;
74933;SDS011;63499;53.232;7.492;2023-04-21T20:27:58;7.53;;;5.47;;
74933;SDS011;63499;53.232;7.492;2023-04-21T20:30:24;12.55;;;5.30;;
74933;SDS011;63499;53.232;7.492;2023-04-21T20:32:51;8.68;;;4.97;;
74933;SDS011;63499;53.232;7.492;2023-04-21T20:35:17;10.50;;;5.45;;
74933;SDS011;63499;53.232;7.492;2023-04-21T20:37:44;8.13;;;4.95;;
74933;SDS011;63499;53.232;7.492;2023-04-21T20:40:11;7.97;;;4.90;;
74933;SDS011;63499;53.232;7.492;2023-04-21T20:42:39;10.00;;;5.70;;
74933;SDS011;63499;53.232;7.492;2023-04-21T20:45:09;10.15;;;5.22;;
74933;SDS011;63499;53.232;7.492;2023-04-21T20:47:37;8.30;;;5.85;;
74933;SDS011;63499;53.232;7.492;2023-04-21T20:50:04;8.43;;;5.47;;
74933;SDS011;63499;53.232;7.492;2023-04-21T20:52:31;9.82;;;5.47;;
74933;SDS011;63499;53.232;7.492;2023-04-21T20:54:58;6.35;;;5.50;;
74933;SDS011;63499;53.232;7.492;2023-04-21T20:57:25;12.73;;;5.97;;
74933;SDS011;63499;53.232;7.492;2023-04-21T20:59:52;14.13;;;5.70;;
74933;SDS011;63499;53.232;7.492;2023-04-21T21:02:19;11.35;;;6.32;;
74933;SDS011;63499;53.232;7.492;2023-04-21T21:04:46;12.52;;;6.18;;
74933;SDS011;63499;53.232;7.492;2023-04-21T21:07:12;12.68;;;6.53;;
74933;SDS011;63499;53.232;7.492;2023-04-21T21:09:39;9.80;;;5.78;;
74933;SDS011;63499;53.232;7.492;2023-04-21T21:12:06;9.00;;;6.25;;
74933;SDS011;63499;53.232;7.492;2023-04-21T21:14:33;11.25;;;5.72;;
74933;SDS011;63499;53.232;7.492;2023-04-21T21:17:00;8.88;;;5.57;;
74933;SDS011;63499;53.232;7.492;2023-04-21T21:19:27;9.48;;;5.97;;
74933;SDS011;63499;53.232;7.492;2023-04-21T21:21:54;14.45;;;6.20;;
74933;SDS011;63499;53.232;7.492;2023-04-21T21:24:20;10.55;;;6.50;;
74933;SDS011;63499;53.232;7.492;2023-04-21T21:26:47;15.38;;;5.93;;
74933;SDS011;63499;53.232;7.492;2023-04-21T21:29:14;10.43;;;6.05;;
74933;SDS011;63499;53.232;7.492;2023-04-21T21:31:40;8.57;;;5.63;;
74933;SDS011;63499;53.232;7.492;2023-04-21T21:34:07;8.60;;;5.80;;
74933;SDS011;63499;53.232;7.492;2023-04-21T21:36:34;18.98;;;5.75;;
74933;SDS011;63499;53.232;7.492;2023-04-21T21:39:01;11.13;;;5.47;;
74933;SDS011;63499;53.232;7.492;2023-04-21T21:41:28;12.73;;;6.57;;
74933;SDS011;63499;53.232;7.492;2023-04-21T21:43:55;10.90;;;5.38;;
74933;SDS011;63499;53.232;7.492;2023-04-21T21:46:22;11.38;;;6.07;;
74933;SDS011;63499;53.232;7.492;2023-04-21T21:48:49;9.10;;;5.80;;
74933;SDS011;63499;53.232;7.492;2023-04-21T21:51:15;8.27;;;5.85;;
74933;SDS011;63499;53.232;7.492;2023-04-21T21:53:42;11.88;;;5.82;;
74933;SDS011;63499;53.232;7.492;2023-04-21T21:56:09;8.75;;;6.00;;
74933;SDS011;63499;53.232;7.492;2023-04-21T21:58:36;13.43;;;6.05;;
74933;SDS011;63499;53.232;7.492;2023-04-21T22:01:03;10.23;;;6.15;;
74933;SDS011;63499;53.232;7.492;2023-04-21T22:03:30;7.00;;;5.05;;
74933;SDS011;63499;53.232;7.492;2023-04-21T22:05:57;9.63;;;6.28;;
74933;SDS011;63499;53.232;7.492;2023-04-21T22:08:23;12.35;;;6.47;;
74933;SDS011;63499;53.232;7.492;2023-04-21T22:10:50;13.07;;;6.35;;
74933;SDS011;63499;53.232;7.492;2023-04-21T22:13:18;10.85;;;5.80;;
74933;SDS011;63499;53.232;7.492;2023-04-21T22:15:44;12.55;;;6.15;;
74933;SDS011;63499;53.232;7.492;2023-04-21T22:18:11;9.82;;;6.32;;
74933;SDS011;63499;53.232;7.492;2023-04-21T22:20:38;12.55;;;6.50;;
74933;SDS011;63499;53.232;7.492;2023-04-21T22:23:06;13.20;;;6.10;;
74933;SDS011;63499;53.232;7.492;2023-04-21T22:25:33;12.85;;;6.60;;
74933;SDS011;63499;53.232;7.492;2023-04-21T22:28:01;9.23;;;6.38;;
74933;SDS011;63499;53.232;7.492;2023-04-21T22:30:28;9.55;;;6.20;;
74933;SDS011;63499;53.232;7.492;2023-04-21T22:32:55;19.25;;;5.90;;
74933;SDS011;63499;53.232;7.492;2023-04-21T22:35:22;8.85;;;5.60;;
74933;SDS011;63499;53.232;7.492;2023-04-21T22:37:49;11.40;;;7.00;;
74933;SDS011;63499;53.232;7.492;2023-04-21T22:40:16;12.73;;;6.70;;
74933;SDS011;63499;53.232;7.492;2023-04-21T22:42:42;13.20;;;6.40;;
74933;SDS011;63499;53.232;7.492;2023-04-21T22:45:09;11.82;;;5.80;;
74933;SDS011;63499;53.232;7.492;2023-04-21T22:47:37;12.43;;;6.15;;
74933;SDS011;63499;53.232;7.492;2023-04-21T22:50:04;7.60;;;5.45;;
74933;SDS011;63499;53.232;7.492;2023-04-21T22:52:32;11.70;;;6.28;;
74933;SDS011;63499;53.232;7.492;2023-04-21T22:54:59;8.68;;;5.45;;
74933;SDS011;63499;53.232;7.492;2023-04-21T22:57:26;9.70;;;5.85;;
74933;SDS011;63499;53.232;7.492;2023-04-21T22:59:52;10.57;;;6.05;;
74933;SDS011;63499;53.232;7.492;2023-04-21T23:02:23;8.68;;;5.53;;
74933;SDS011;63499;53.232;7.492;2023-04-21T23:04:49;10.82;;;5.72;;
74933;SDS011;63499;53.232;7.492;2023-04-21T23:07:17;9.52;;;6.13;;
74933;SDS011;63499;53.232;7.492;2023-04-21T23:09:43;13.32;;;6.43;;
74933;SDS011;63499;53.232;7.492;2023-04-21T23:12:10;12.10;;;5.82;;
74933;SDS011;63499;53.232;7.492;2023-04-21T23:14:37;10.45;;;6.13;;
74933;SDS011;63499;53.232;7.492;2023-04-21T23:17:05;11.57;;;6.25;;
74933;SDS011;63499;53.232;7.492;2023-04-21T23:19:31;9.63;;;6.50;;
74933;SDS011;63499;53.232;7.492;2023-04-21T23:21:58;8.13;;;6.07;;
74933;SDS011;63499;53.232;7.492;2023-04-21T23:24:25;10.23;;;6.18;;